createdAt,value
2018-07-06T10:22:40.762Z,27.40
2018-07-06T10:25:09.093Z,23.60
2018-07-06T10:27:49.833Z,25.20
2018-07-06T10:30:34.769Z,27.80
2018-07-06T10:35:03.174Z,25.40
2018-07-06T10:37:31.745Z,27.80
2018-07-06T10:42:12.617Z,29.60
2018-07-06T10:44:42.033Z,25.60
2018-07-06T10:47:10.866Z,26.40
2018-07-06T10:49:39.322Z,24.60
2018-07-06T10:52:08.228Z,22.20
2018-07-06T10:54:37.377Z,22.40
2018-07-06T10:57:05.969Z,21.00
2018-07-06T10:59:35.434Z,25.20
2018-07-06T11:02:03.832Z,22.40
2018-07-06T11:04:32.316Z,24.00
2018-07-06T11:07:00.775Z,21.20
2018-07-06T11:09:29.066Z,23.80
2018-07-06T11:11:57.521Z,23.00
2018-07-06T11:14:26.095Z,24.20
2018-07-06T11:16:54.402Z,16.00
2018-07-06T11:19:22.791Z,23.60
2018-07-06T11:21:51.187Z,22.20
2018-07-06T11:24:19.534Z,24.20
2018-07-06T11:26:47.838Z,23.20
2018-07-06T11:29:16.201Z,17.20
2018-07-06T11:31:44.561Z,25.60
2018-07-06T11:34:12.912Z,27.60
2018-07-06T11:36:41.222Z,22.60
2018-07-06T11:39:09.566Z,22.00
2018-07-06T11:41:39.547Z,24.80
2018-07-06T11:44:08.039Z,23.00
2018-07-06T11:46:37.753Z,30.00
2018-07-06T11:50:36.989Z,18.20
2018-07-06T11:53:05.313Z,20.60
2018-07-06T11:55:33.715Z,23.20
2018-07-06T11:58:01.987Z,25.60
2018-07-06T12:00:30.221Z,22.20
2018-07-06T12:03:02.022Z,21.60
2018-07-06T12:05:29.645Z,18.60
2018-07-06T12:07:57.074Z,22.20
2018-07-06T12:10:24.704Z,23.20
2018-07-06T12:12:52.226Z,21.00
2018-07-06T12:15:19.673Z,22.40
2018-07-06T12:17:47.123Z,26.60
2018-07-06T12:20:54.613Z,20.80
2018-07-06T12:23:22.050Z,22.60
2018-07-06T12:25:49.474Z,24.60
2018-07-06T12:28:17.017Z,21.00
2018-07-06T12:30:44.486Z,22.80
2018-07-06T12:33:11.926Z,16.80
2018-07-06T12:35:39.422Z,22.20
2018-07-06T12:38:06.843Z,19.40
2018-07-06T12:40:34.346Z,17.80
2018-07-06T12:43:01.796Z,15.20
2018-07-06T12:45:29.209Z,10.00
2018-07-06T12:47:57.042Z,22.40
2018-07-06T12:50:24.529Z,21.20
2018-07-06T12:52:52.014Z,18.20
2018-07-06T12:55:19.450Z,21.80
2018-07-06T12:57:46.942Z,20.40
2018-07-06T13:00:14.403Z,20.80
2018-07-06T13:02:41.832Z,16.80
2018-07-06T13:05:09.310Z,18.80
2018-07-06T13:07:36.747Z,18.60
2018-07-06T13:10:04.170Z,17.20
2018-07-06T13:12:31.557Z,17.80
2018-07-06T13:14:58.994Z,15.20
2018-07-06T13:17:26.525Z,17.20
2018-07-06T13:19:53.992Z,18.00
2018-07-06T13:22:21.398Z,12.60
2018-07-06T13:24:48.832Z,17.40
2018-07-06T13:27:16.303Z,17.80
2018-07-06T13:29:43.759Z,15.20
2018-07-06T13:32:11.222Z,12.80
2018-07-06T13:34:38.645Z,13.20
2018-07-06T13:37:06.134Z,15.40
2018-07-06T13:39:33.598Z,15.00
2018-07-06T13:42:01.049Z,15.60
2018-07-06T13:44:28.495Z,14.60
2018-07-06T13:46:56.074Z,14.40
2018-07-06T13:49:23.422Z,13.40
2018-07-06T13:51:51.351Z,14.40
2018-07-06T13:54:18.841Z,12.40
2018-07-06T13:56:46.578Z,11.00
2018-07-06T13:59:14.129Z,13.60
2018-07-06T14:01:41.514Z,12.00
2018-07-06T14:04:09.729Z,12.00
2018-07-06T14:06:37.226Z,15.60
2018-07-06T14:09:05.179Z,11.60
2018-07-06T14:11:33.067Z,13.20
2018-07-06T14:14:01.060Z,13.80
2018-07-06T14:16:28.501Z,13.20
2018-07-06T14:18:55.861Z,14.00
2018-07-06T14:21:23.310Z,13.20
2018-07-06T14:23:50.791Z,11.00
2018-07-06T14:26:18.223Z,13.80
2018-07-06T14:28:45.720Z,13.80
